createdAt,value
2022-11-05T00:01:07.236Z,0
2022-11-05T00:06:08.920Z,0
2022-11-05T00:11:15.234Z,0
2022-11-05T00:16:20.224Z,0
2022-11-05T00:21:22.291Z,0
2022-11-05T00:26:24.269Z,0
2022-11-05T00:31:26.353Z,0
2022-11-05T00:36:28.392Z,0
2022-11-05T00:41:30.190Z,0
2022-11-05T00:46:32.905Z,0
2022-11-05T00:51:34.674Z,0
2022-11-05T00:56:36.771Z,0
2022-11-05T01:01:39.127Z,0
2022-11-05T01:06:41.003Z,0
2022-11-05T01:11:42.950Z,0
2022-11-05T01:16:45.459Z,0
2022-11-05T01:21:47.263Z,0
2022-11-05T01:26:48.852Z,0
2022-11-05T01:31:50.763Z,0
2022-11-05T01:36:53.133Z,0
2022-11-05T01:41:55.187Z,0
2022-11-05T01:46:57.361Z,0
2022-11-05T01:51:59.343Z,0
2022-11-05T01:57:01.027Z,0
2022-11-05T02:02:03.239Z,0
2022-11-05T02:07:05.472Z,0
2022-11-05T02:12:07.483Z,0
2022-11-05T02:17:09.967Z,0
2022-11-05T02:22:11.949Z,0
2022-11-05T02:27:13.746Z,0
2022-11-05T02:32:15.811Z,0
2022-11-05T02:37:17.633Z,0.88715
2022-11-05T02:42:19.497Z,0.88715
2022-11-05T02:47:21.734Z,0.88715
2022-11-05T02:52:23.919Z,0
2022-11-05T02:57:25.351Z,2.3237
2022-11-05T03:02:27.796Z,1.71845
2022-11-05T03:07:29.914Z,7.7089
2022-11-05T03:12:31.932Z,12.7252
2022-11-05T03:17:34.041Z,22.57335
2022-11-05T03:22:35.881Z,33.8971
2022-11-05T03:27:37.855Z,53.27965
2022-11-05T03:32:40.041Z,72.6622
2022-11-05T03:37:41.962Z,100.5466
2022-11-05T03:42:43.840Z,129.72215
2022-11-05T03:47:46.100Z,159.32175
2022-11-05T03:52:47.807Z,188.16455
2022-11-05T03:57:49.683Z,211.7343
2022-11-05T04:02:52.385Z,219.01915
2022-11-05T04:07:54.358Z,379.5426
2022-11-05T04:12:56.387Z,306.41835
2022-11-05T04:17:58.922Z,361.57865
2022-11-05T04:23:01.175Z,415.89085
2022-11-05T04:28:02.960Z,318.1643
2022-11-05T04:33:04.838Z,493.1263
2022-11-05T04:38:07.090Z,506.8099
2022-11-05T04:43:14.694Z,307.1163
2022-11-05T04:48:17.282Z,585.2262
2022-11-05T04:53:19.044Z,550.7016
2022-11-05T04:58:20.583Z,627.0528
2022-11-05T05:03:22.447Z,639.00405
2022-11-05T05:08:24.255Z,695.56765
2022-11-05T05:13:26.252Z,667.5558
2022-11-05T05:18:28.386Z,682.9546
2022-11-05T05:23:30.063Z,602.7851
2022-11-05T05:28:31.610Z,684.8371
2022-11-05T05:33:33.479Z,698.8553
2022-11-05T05:38:35.162Z,703.4304
2022-11-05T05:43:37.176Z,700.84995
2022-11-05T05:48:39.544Z,717.65205
2022-11-05T05:53:41.309Z,745.77975
2022-11-05T05:58:43.382Z,765.7175
2022-11-05T06:03:45.312Z,816.1618
2022-11-05T06:08:47.140Z,758.4229
2022-11-05T06:13:49.270Z,541.64035
2022-11-05T06:18:51.627Z,426.3702
2022-11-05T06:23:53.507Z,390.1114
2022-11-05T06:28:55.361Z,475.74025
2022-11-05T06:33:57.050Z,645.482
2022-11-05T06:38:58.981Z,656.63845
2022-11-05T06:44:00.581Z,637.33005
2022-11-05T06:49:02.953Z,645.81475
2022-11-05T06:54:04.734Z,649.5209
2022-11-05T06:59:06.535Z,678.01565
2022-11-05T07:04:08.769Z,680.2842
2022-11-05T07:09:10.806Z,691.64595
2022-11-05T07:14:12.475Z,680.28605
2022-11-05T07:19:14.406Z,654.4306
2022-11-05T07:24:15.977Z,643.12585
2022-11-05T07:29:17.595Z,622.84005
2022-11-05T07:34:19.737Z,599.38245
2022-11-05T07:39:21.818Z,601.04755
2022-11-05T07:44:23.884Z,628.8356
2022-11-05T07:49:25.883Z,637.49085
2022-11-05T07:54:27.651Z,631.9798
2022-11-05T07:59:29.747Z,649.6385
2022-11-05T08:04:31.996Z,660.60115
2022-11-05T08:09:34.063Z,683.0597
2022-11-05T08:14:35.948Z,737.11565
2022-11-05T08:19:38.454Z,570.1087
2022-11-05T08:24:40.508Z,872.6236
2022-11-05T08:29:42.393Z,553.3636
2022-11-05T08:34:44.608Z,785.27865
2022-11-05T08:39:46.579Z,797.5717
2022-11-05T08:44:48.045Z,898.04525
2022-11-05T08:49:50.448Z,650.65265
2022-11-05T08:54:52.402Z,721.6015
2022-11-05T08:59:54.389Z,956.177
2022-11-05T09:04:56.289Z,678.99725
2022-11-05T09:09:58.057Z,588.60515
2022-11-05T09:14:59.738Z,947.36275
2022-11-05T09:35:33.034Z,669.49345
